Fort George G Meade, Maryland
Current Conditions -  °F | °C
As of 10:57 AM on Friday 24 Oct 2014 (Local Time) from KFME Reporting Station
Clear Clear  
Wind Chill: 59°   Ceiling: Unl
Heat Index: 59°   Visibility: 10mi
Dew Point: 43°   Wind: 14mph
Humidity: 55%   Direction: 300°WNW
Pressure: 29.98"   Gusts: 21mph
Location:  39.11°N, 76.73°W
Report Text: KFME 241457Z AUTO 30012G18KT 270V340 10SM CLR 15/06 A2998 RMK AO1
Loading
Personal Weather Stations






























Interactive Weather Map
Tropical Storm Tracking
New forecast layout! Learn more

10-Day Weather Forecast

Advertisements
Track Severe Weather on mobile